Main page
METAR-TAF:

Airports :

Podgorica, Montenegro

Podgorica Airport

latitude: 42-26N, longitude: 019-17E, elevation: 53 m

Current weather observation

The report was made 49 minutes ago, at 12:30 UTC
Wind 6 kt from the South/Southwest, varying between South/Southeast and West/Southwest
Temperature 34°C
Humidity 26%
Pressure 1014 hPa
Visibility 10 km or more
Few clouds at a height of 4000 ft

METAR: LYPG 301230Z 20006KT 150V240 9999 FEW040 34/12 Q1014 NOSIG

Time: 15:19 (13:19 UTC)

Forecast

The report was made 2 hours and 19 minutes ago, at 11:00 UTC
Forecast valid from 30 at 12 UTC to 31 at 12 UTC
Wind 6 kt from the South
Visibility 10 km or more
Few clouds at a height of 4000 ft

TAF: LYPG 301100Z 3012/3112 17006KT 9999 FEW040 TX34/3012Z TN20/3104Z

METAR-TAF

Weather observations and forecasts of more than 4000 airports (METAR and TAF reports).

The available stations are represented by yellow and red dots on the map.

Hover mouse over dot to see the name of the station.

Then click to see weather observations and forecasts.

To change the map : click on the green buttons with a black cross to zoom in, on the green button with a dash to zoom out, or on the green arrows for adjacent maps.


METAR-TAF: